Aeroporto :
LOGIN :

Iscrizione | Disclaimer

   EN    FR    IT 

 










Sommario :    VFR   VFR Marginale   IFR   IFR Intensivo   IFR Molto Intensivo
Visibilità : 
Base nubi : 
>= 8 km
>= 3000ft
5 / 8 km
1000 / 3000 ft
1500m / 5 km
500 / 1000 ft
800 / 1500m
200 / 500 ft
< 800m
< 200 ft
Simboli :   Temporali  Nebbia  Neve Forte  Precipitazioni Forti  Vento > 20 kt
SIGMETs :   Varie  Temporali  Ghiacco  Turbolenza  Onda orograficha  Ceneri Vulcaniche






- Altitudine del aeroporto : 502 ft
- Codice IATA : ORK


EICK - Cork

ULTIMO METAR :
  • 202000Z 25014KT 9999 FEW018 SCT048 04/01 Q1019 NOSIG

METARs OBSOLETI :
  • 201930Z 23009KT 9999 FEW020 SCT050 03/00 Q1019 NOSIG
  • 201900Z 23009KT 9999 SCT023 03/00 Q1018 NOSIG
  • 201830Z 22009KT 9999 FEW018CB 03/00 Q1018 NOSIG
  • 201800Z 27008KT 9999 FEW018CB 04/01 Q1017 NOSIG
  • 201730Z 24009KT 9999 FEW018 BKN025 05/00 Q1017 NOSIG

TAF TAF EICK
Valido dal 20 a 18 ore il 21 a 18 ore UTC


201700Z 2018/2118 28016G26KT 9999 SCT020
BECMG 2018/2020 25011KT
BECMG 2020/2022 22010KT
BECMG 2023/2101 23015G25KT
BECMG 2101/2103 23023G36KT
TEMPO 2108/2112 BKN010
BECMG 2112/2114 -RA SCT006 BKN010
TEMPO 2113/2118 4000 -RADZ BKN006
PROB30
TEMPO 2114/2118 2500 BKN004



MetMap, La meteo Aeronautica in un colpo d'occhio ! - Copyright ORBIFLY Dicembre 2007 - Disclaimer

ORBIFLY MET'MAP TEAM :

Programmazione e sviluppo : Alexandra Zaïnal
Concezione : Baudouin d'Aumeries
Aiuto per la programmazione : Marc-Olivier Méhu
Supporto tecnico e logistico : Manuel Goepfert
Aiuto per la traduzione : Arnaldo La Scala

Contatto : metmap@orbifly.com




FONTI E CREDITI :

   NOAA